Map

Track Data

SID SEASON NUMBER BASIN SUBBASIN NAME ISO_TIME NATURE LAT LON WMO_WIND WMO_PRES WMO_AGENCY TRACK_TYPE DIST2LAND LANDFALL IFLAG USA_AGENCY USA_ATCF_ID USA_LAT USA_LON USA_RECORD USA_STATUS USA_WIND USA_PRES USA_SSHS USA_R34_NE USA_R34_SE USA_R34_SW USA_R34_NW USA_R50_NE USA_R50_SE USA_R50_SW USA_R50_NW USA_R64_NE USA_R64_SE USA_R64_SW USA_R64_NW USA_POCI USA_ROCI USA_RMW USA_EYE TOKYO_LAT TOKYO_LON TOKYO_GRADE TOKYO_WIND TOKYO_PRES TOKYO_R50_DIR TOKYO_R50_LONG TOKYO_R50_SHORT TOKYO_R30_DIR TOKYO_R30_LONG TOKYO_R30_SHORT TOKYO_LAND CMA_LAT CMA_LON CMA_CAT CMA_WIND CMA_PRES HKO_LAT HKO_LON HKO_CAT HKO_WIND HKO_PRES NEWDELHI_LAT NEWDELHI_LON NEWDELHI_GRADE NEWDELHI_WIND NEWDELHI_PRES NEWDELHI_CI NEWDELHI_DP NEWDELHI_POCI REUNION_LAT REUNION_LON REUNION_TYPE REUNION_WIND REUNION_PRES REUNION_TNUM REUNION_CI REUNION_RMW REUNION_R34_NE REUNION_R34_SE REUNION_R34_SW REUNION_R34_NW REUNION_R50_NE REUNION_R50_SE REUNION_R50_SW REUNION_R50_NW REUNION_R64_NE REUNION_R64_SE REUNION_R64_SW REUNION_R64_NW BOM_LAT BOM_LON BOM_TYPE BOM_WIND BOM_PRES BOM_TNUM BOM_CI BOM_RMW BOM_R34_NE BOM_R34_SE BOM_R34_SW BOM_R34_NW BOM_R50_NE BOM_R50_SE BOM_R50_SW BOM_R50_NW BOM_R64_NE BOM_R64_SE BOM_R64_SW BOM_R64_NW BOM_ROCI BOM_POCI BOM_EYE BOM_POS_METHOD BOM_PRES_METHOD NADI_LAT NADI_LON NADI_CAT NADI_WIND NADI_PRES WELLINGTON_LAT WELLINGTON_LON WELLINGTON_WIND WELLINGTON_PRES DS824_LAT DS824_LON DS824_STAGE DS824_WIND DS824_PRES TD9636_LAT TD9636_LON TD9636_STAGE TD9636_WIND TD9636_PRES TD9635_LAT TD9635_LON TD9635_WIND TD9635_PRES TD9635_ROCI NEUMANN_LAT NEUMANN_LON NEUMANN_CLASS NEUMANN_WIND NEUMANN_PRES MLC_LAT MLC_LON MLC_CLASS MLC_WIND MLC_PRES USA_GUST BOM_GUST BOM_GUST_PER REUNION_GUST REUNION_GUST_PER USA_SEAHGT USA_SEARAD_NE USA_SEARAD_SE USA_SEARAD_SW USA_SEARAD_NW STORM_SPEED STORM_DIR
1960226N19090 1960 51 NI BB NOT_NAMED 1960-08-12 18:00:00 TS 19.4000 90.0000 main 263 249 O________O____ jtwc_io IO071960 19.4000 90.0000 -1 19.4000 90.0000 TC 4 314
1960226N19090 1960 51 NI BB NOT_NAMED 1960-08-12 21:00:00 TS 19.5375 89.8500 main 249 221 P________P____ IO071960 19.5375 89.8500 -1 19.5375 89.8500 TC 4 317
1960226N19090 1960 51 NI BB NOT_NAMED 1960-08-13 00:00:00 TS 19.7000 89.7000 main 221 197 O________O____ jtwc_io IO071960 19.7000 89.7000 -1 19.7000 89.7000 TC 25 5 322
1960226N19090 1960 51 NI BB NOT_NAMED 1960-08-13 03:00:00 TS 19.9000 89.5444 main 194 170 P________PO___ IO071960 19.9000 89.5500 -1 19.9000 89.5500 TC 25 19.9000 89.5000 1 5 323
1960226N19090 1960 51 NI BB NOT_NAMED 1960-08-13 06:00:00 TS 20.0925 89.3857 main 170 156 O________OP___ jtwc_io IO071960 20.1000 89.4000 -1 20.1000 89.4000 TC 25 20.0627 89.3285 1 5 319
1960226N19090 1960 51 NI BB NOT_NAMED 1960-08-13 09:00:00 TS 20.2446 89.2269 main 156 134 P________PP___ IO071960 20.2500 89.2499 -1 20.2500 89.2499 TC 25 20.2303 89.1654 1 4 317
1960226N19090 1960 51 NI BB NOT_NAMED 1960-08-13 12:00:00 TS 20.4026 89.0732 main 134 111 O________OP___ jtwc_io IO071960 20.4000 89.1000 -1 20.4000 89.1000 TC 25 20.4077 89.0196 1 5 321
1960226N19090 1960 51 NI BB NOT_NAMED 1960-08-13 15:00:00 TS 20.5950 88.9234 main 111 90 P________PO___ IO071960 20.5925 88.9350 -1 20.5925 88.9350 TC 25 20.6000 88.9000 1 5 328
1960226N19090 1960 51 NI BB NOT_NAMED 1960-08-13 18:00:00 TS 20.8030 88.8033 main 90 67 O________OP___ jtwc_io IO071960 20.8000 88.8000 -1 20.8000 88.8000 TC 25 20.8089 88.8098 1 4 338
1960226N19090 1960 51 NI BB NOT_NAMED 1960-08-13 21:00:00 TS 21.0073 88.7481 main 70 49 P________PP___ IO071960 20.9999 88.7573 -1 20.9999 88.7573 TC 25 21.0222 88.7297 1 4 344
1960226N19090 1960 51 NI BB NOT_NAMED 1960-08-14 00:00:00 TS 21.2081 88.6783 main 49 22 O________OP___ jtwc_io IO071960 21.2000 88.7000 -1 21.2000 88.7000 TC 25 21.2244 88.6348 1 5 332
1960226N19090 1960 51 NI BB NOT_NAMED 1960-08-14 03:00:00 TS 21.4150 88.5201 main 22 0 P________PO___ IO071960 21.4225 88.5301 -1 21.4225 88.5301 TC 25 21.4000 88.5000 1 5 316
1960226N19090 1960 51 NI BB NOT_NAMED 1960-08-14 06:00:00 TS 21.5804 88.2977 main 0 0 O________OP___ jtwc_io IO071960 21.6000 88.3000 -1 21.6000 88.3000 TC 25 21.5411 88.2932 1 5 300
1960226N19090 1960 51 NI BB NOT_NAMED 1960-08-14 09:00:00 TS 21.6659 88.0533 main 10 0 P________PP___ IO071960 21.6725 88.0574 -1 21.6725 88.0574 TC 25 21.6527 88.0451 1 5 286
1960226N19090 1960 51 NI BB NOT_NAMED 1960-08-14 12:00:00 TS 21.7126 87.7915 main 0 0 O________OP___ jtwc_io IO071960 21.7000 87.8000 -1 21.7000 87.8000 TC 25 21.7379 87.7745 1 5 282
1960226N19090 1960 51 NI BB NOT_NAMED 1960-08-14 15:00:00 TS 21.7666 87.5333 main 0 0 P________PO___ IO071960 21.7500 87.5500 -1 21.7500 87.5500 TC 25 21.8000 87.5000 1 5 282
1960226N19090 1960 51 NI BB NOT_NAMED 1960-08-14 18:00:00 TS 21.8168 87.2833 main 0 0 O________OP___ jtwc_io IO071960 21.8000 87.3000 -1 21.8000 87.3000 TC 25 21.8505 87.2498 1 5 282
1960226N19090 1960 51 NI BB NOT_NAMED 1960-08-14 21:00:00 TS 21.8649 87.0383 main 0 0 P________PP___ IO071960 21.8574 87.0575 -1 21.8574 87.0575 TC 25 21.8798 86.9998 1 5 280
1960226N19090 1960 51 NI BB NOT_NAMED 1960-08-15 00:00:00 TS 21.8981 86.7833 main 0 0 O________OP___ jtwc_io IO071960 21.9000 86.8000 -1 21.9000 86.8000 TC 25 21.8943 86.7499 1 5 275
1960226N19090 1960 51 NI BB NOT_NAMED 1960-08-15 03:00:00 TS 21.9050 86.5000 main 0 0 P________PO___ IO071960 21.9075 86.5000 -1 21.9075 86.5000 TC 25 21.9000 86.5000 1 5 270
1960226N19090 1960 51 NI BB NOT_NAMED 1960-08-15 06:00:00 TS 21.8997 86.2099 main 0 0 O________OP___ jtwc_io IO071960 21.9000 86.2000 -1 21.9000 86.2000 TC 25 21.8991 86.2296 1 5 269
1960226N19090 1960 51 NI BB NOT_NAMED 1960-08-15 09:00:00 TS 21.8975 85.9441 main 0 0 P________PP___ IO071960 21.9000 85.9350 -1 21.9000 85.9350 TC 25 21.8926 85.9623 1 5 270
1960226N19090 1960 51 NI BB NOT_NAMED 1960-08-15 12:00:00 TS 21.8966 85.7047 main 0 0 O________OP___ jtwc_io IO071960 21.9000 85.7000 -1 21.9000 85.7000 TC 25 21.8898 85.7139 1 4 270
1960226N19090 1960 51 NI BB NOT_NAMED 1960-08-15 15:00:00 TS 21.8950 85.4850 main 0 0 P________PO___ IO071960 21.8925 85.4775 -1 21.8925 85.4775 TC 25 21.9000 85.5000 1 4 272
1960226N19090 1960 51 NI BB NOT_NAMED 1960-08-15 18:00:00 TS 21.9091 85.3130 main 0 0 O________OP___ jtwc_io IO071960 21.9000 85.3000 -1 21.9000 85.3000 TC 25 21.9273 85.3390 1 3 281
1960226N19090 1960 51 NI BB NOT_NAMED 1960-08-15 21:00:00 TS 21.9465 85.1941 main 0 0 P________PP___ IO071960 21.9350 85.1850 -1 21.9350 85.1850 TC 25 21.9697 85.2124 1 2 297
1960226N19090 1960 51 NI BB NOT_NAMED 1960-08-16 00:00:00 TS 22.0091 85.1015 main 0 0 O________OP___ jtwc_io IO071960 22.0000 85.1000 -1 22.0000 85.1000 TC 25 22.0273 85.1046 1 2 310
1960226N19090 1960 51 NI BB NOT_NAMED 1960-08-16 03:00:00 TS 22.0950 85.0050 main 0 0 P________PO___ IO071960 22.0925 85.0075 -1 22.0925 85.0075 TC 25 22.1000 85.0000 1 3 314
1960226N19090 1960 51 NI BB NOT_NAMED 1960-08-16 06:00:00 TS 22.1952 84.8917 main 0 0 O________OP___ jtwc_io IO071960 22.2000 84.9000 -1 22.2000 84.9000 TC 25 22.1856 84.8750 1 3 310
1960226N19090 1960 51 NI BB NOT_NAMED 1960-08-16 09:00:00 TS 22.2950 84.7500 main 0 0 P________PP___ IO071960 22.3000 84.7500 -1 22.3000 84.7500 TC 25 22.2850 84.7500 1 3 308
1960226N19090 1960 51 NI BB NOT_NAMED 1960-08-16 12:00:00 TS 22.3973 84.6083 main 0 0 O________OP___ jtwc_io IO071960 22.4000 84.6000 -1 22.4000 84.6000 TC 25 22.3918 84.6250 1 3 312
1960226N19090 1960 51 NI BB NOT_NAMED 1960-08-16 15:00:00 TS 22.5000 84.5000 main 0 0 P________PO___ IO071960 22.5000 84.5000 -1 22.5000 84.5000 TC 25 22.5000 84.5000 1 3 316
1960226N19090 1960 51 NI BB NOT_NAMED 1960-08-16 18:00:00 TS 22.5890 84.4090 main 0 0 O________OP___ jtwc_io IO071960 22.6000 84.4000 -1 22.6000 84.4000 TC 25 22.5670 84.4269 1 3 312
1960226N19090 1960 51 NI BB NOT_NAMED 1960-08-16 21:00:00 TS 22.6747 84.2920 main 0 0 P________PP___ IO071960 22.6925 84.2649 -1 22.6925 84.2649 TC 25 22.6391 84.3460 1 3 308
1960226N19090 1960 51 NI BB NOT_NAMED 1960-08-17 00:00:00 TS 22.7806 84.1390 main 0 0 O________OP___ jtwc_io IO071960 22.8000 84.1000 -1 22.8000 84.1000 TC 25 22.7417 84.2171 1 4 307
1960226N19090 1960 51 NI BB NOT_NAMED 1960-08-17 03:00:00 TS 22.9082 83.9631 main 0 0 P________PO___ IO071960 22.9123 83.9446 -1 22.9123 83.9446 TC 25 22.9000 84.0000 1 5 309
1960226N19090 1960 51 NI BB NOT_NAMED 1960-08-17 06:00:00 TS 23.1183 83.6868 main 0 0 O________OP___ jtwc_io IO071960 23.1000 83.7000 -1 23.1000 83.7000 TC 25 23.1549 83.6605 1 8 310
1960226N19090 1960 51 NI BB NOT_NAMED 1960-08-17 09:00:00 TS 23.4442 83.2780 main 0 0 P________PP___ IO071960 23.4350 83.3028 -1 23.4350 83.3028 TC 25 23.4627 83.2286 1 11 309
1960226N19090 1960 51 NI BB NOT_NAMED 1960-08-17 12:00:00 TS 23.7964 82.7774 main 0 0 O________OP___ jtwc_io IO071960 23.8000 82.8000 -1 23.8000 82.8000 TC 25 23.7891 82.7322 1 11 304
1960226N19090 1960 51 NI BB NOT_NAMED 1960-08-17 15:00:00 TS 24.0766 82.2481 main 0 0 P________PO___ IO071960 24.0649 82.2722 -1 24.0649 82.2722 TC 25 24.1000 82.2000 1 11 298
1960226N19090 1960 51 NI BB NOT_NAMED 1960-08-17 18:00:00 TS 24.3197 81.6861 main 0 0 O________OP___ jtwc_io IO071960 24.3000 81.7000 -1 24.3000 81.7000 TC 25 24.3591 81.6583 1 12 295
1960226N19090 1960 51 NI BB NOT_NAMED 1960-08-17 21:00:00 TS 24.5702 81.0925 main 0 0 P________PP___ IO071960 24.5575 81.0925 -1 24.5575 81.0925 TC 25 24.5955 81.0925 1 12 294
1960226N19090 1960 51 NI BB NOT_NAMED 1960-08-18 00:00:00 TS 24.8030 80.5101 main 0 0 O________OP___ jtwc_io IO071960 24.8000 80.5000 -1 24.8000 80.5000 TC 25 24.8091 80.5303 1 11 294
1960226N19090 1960 51 NI BB NOT_NAMED 1960-08-18 03:00:00 TS 25.0099 79.9799 main 0 0 P________PO___ IO071960 25.0148 79.9698 -1 25.0148 79.9698 TC 25 25.0000 80.0000 1 10 293
1960226N19090 1960 51 NI BB NOT_NAMED 1960-08-18 06:00:00 TS 25.1917 79.5074 main 0 0 O________OP___ jtwc_io IO071960 25.2000 79.5000 -1 25.2000 79.5000 TC 25 25.1750 79.5221 1 9 293
1960226N19090 1960 51 NI BB NOT_NAMED 1960-08-18 09:00:00 TS 25.3529 79.0838 main 0 0 P________PP___ IO071960 25.3648 79.0848 -1 25.3648 79.0848 TC 25 25.3292 79.0817 1 8 292
1960226N19090 1960 51 NI BB NOT_NAMED 1960-08-18 12:00:00 TS 25.4896 78.6918 main 0 0 O________OP___ jtwc_io IO071960 25.5000 78.7000 -1 25.5000 78.7000 TC 25 25.4689 78.6754 1 8 289
1960226N19090 1960 51 NI BB NOT_NAMED 1960-08-18 15:00:00 TS 25.6000 78.2949 main 0 0 P________PO___ IO071960 25.5999 78.2923 -1 25.5999 78.2923 TC 25 25.6000 78.3000 1 7 287
1960226N19090 1960 51 NI AS NOT_NAMED 1960-08-18 18:00:00 TS 25.7120 77.9059 main 0 0 O________OP___ jtwc_io IO071960 25.7000 77.9000 -1 25.7000 77.9000 TC 25 25.7360 77.9176 1 7 290
1960226N19090 1960 51 NI AS NOT_NAMED 1960-08-18 21:00:00 TS 25.8549 77.5358 main 0 0 P________PP___ IO071960 25.8500 77.5201 -1 25.8500 77.5201 TC 25 25.8648 77.5673 1 7 295
1960226N19090 1960 51 NI AS NOT_NAMED 1960-08-19 00:00:00 TS 25.9954 77.2195 main 0 0 O________OP___ jtwc_io IO071960 26.0000 77.2000 -1 26.0000 77.2000 TC 25 25.9862 77.2584 1 6 297
1960226N19090 1960 51 NI AS NOT_NAMED 1960-08-19 03:00:00 TS 26.1049 76.9799 main 0 0 P________PO___ IO071960 26.1074 76.9699 -1 26.1074 76.9699 TC 25 26.1000 77.0000 1 4 299
1960226N19090 1960 51 NI AS NOT_NAMED 1960-08-19 06:00:00 TS 26.2023 76.7971 main 0 0 O________OP___ jtwc_io IO071960 26.2000 76.8000 -1 26.2000 76.8000 TC 25 26.2068 76.7912 1 4 302
1960226N19090 1960 51 NI AS NOT_NAMED 1960-08-19 09:00:00 TS 26.3023 76.6340 main 0 0 P________PP___ IO071960 26.3000 76.6350 -1 26.3000 76.6350 TC 25 26.3070 76.6321 1 3 307
1960226N19090 1960 51 NI AS NOT_NAMED 1960-08-19 12:00:00 TS 26.4013 76.5023 main 0 0 O________OP___ jtwc_io IO071960 26.4000 76.5000 -1 26.4000 76.5000 TC 25 26.4038 76.5070 1 3 313
1960226N19090 1960 51 NI AS NOT_NAMED 1960-08-19 15:00:00 TS 26.5000 76.3950 main 0 0 P________PO___ IO071960 26.5000 76.3925 -1 26.5000 76.3925 TC 25 26.5000 76.4000 1 3 318
1960226N19090 1960 51 NI AS NOT_NAMED 1960-08-19 18:00:00 TS 26.5992 76.2992 main 0 0 O________OP___ jtwc_io IO071960 26.6000 76.3000 -1 26.6000 76.3000 TC 25 26.5980 76.2980 1 3 319
1960226N19090 1960 51 NI AS NOT_NAMED 1960-08-19 21:00:00 TS 26.6990 76.2005 main 0 0 P________PP___ IO071960 26.7000 76.2025 -1 26.7000 76.2025 TC 25 26.6977 76.1978 1 3 318
1960226N19090 1960 51 NI AS NOT_NAMED 1960-08-20 00:00:00 TS 26.7993 76.0993 main 0 0 O________OP___ jtwc_io IO071960 26.8000 76.1000 -1 26.8000 76.1000 TC 25 26.7986 76.0986 1 3 318
1960226N19090 1960 51 NI AS NOT_NAMED 1960-08-20 03:00:00 NR 26.9000 76.0000 main 0 __________O___ IO071960 -1 TC 26.9000 76.0000 1 3 320

About IBTrACS Database

This database is a web-friendly format of International Best Track Archive for Climate Stewardship (IBTrACS), a global best track data archive curated by NOAA dating back to 1842.

Updated: 2021-10-27